sensor_id;sensor_type;location;lat;lon;timestamp;P1;durP1;ratioP1;P2;durP2;ratioP2
47167;SDS011;32931;47.778;17.806;2023-04-24T00:01:17;16.35;;;6.50;;
47167;SDS011;32931;47.778;17.806;2023-04-24T00:03:44;10.75;;;6.70;;
47167;SDS011;32931;47.778;17.806;2023-04-24T00:06:11;11.02;;;6.53;;
47167;SDS011;32931;47.778;17.806;2023-04-24T00:08:37;11.35;;;6.40;;
47167;SDS011;32931;47.778;17.806;2023-04-24T00:11:03;11.98;;;7.13;;
47167;SDS011;32931;47.778;17.806;2023-04-24T00:13:29;13.00;;;6.80;;
47167;SDS011;32931;47.778;17.806;2023-04-24T00:15:55;18.70;;;7.40;;
47167;SDS011;32931;47.778;17.806;2023-04-24T00:18:22;11.25;;;6.68;;
47167;SDS011;32931;47.778;17.806;2023-04-24T00:20:48;9.35;;;7.00;;
47167;SDS011;32931;47.778;17.806;2023-04-24T00:23:14;12.70;;;6.72;;
47167;SDS011;32931;47.778;17.806;2023-04-24T00:25:40;16.13;;;6.97;;
47167;SDS011;32931;47.778;17.806;2023-04-24T00:28:06;14.35;;;7.60;;
47167;SDS011;32931;47.778;17.806;2023-04-24T00:30:32;12.18;;;7.45;;
47167;SDS011;32931;47.778;17.806;2023-04-24T00:32:58;10.90;;;7.18;;
47167;SDS011;32931;47.778;17.806;2023-04-24T00:35:25;13.15;;;8.07;;
47167;SDS011;32931;47.778;17.806;2023-04-24T00:37:51;11.27;;;7.38;;
47167;SDS011;32931;47.778;17.806;2023-04-24T00:40:17;15.13;;;7.25;;
47167;SDS011;32931;47.778;17.806;2023-04-24T00:42:43;13.93;;;7.55;;
47167;SDS011;32931;47.778;17.806;2023-04-24T00:45:10;15.30;;;7.88;;
47167;SDS011;32931;47.778;17.806;2023-04-24T00:47:37;14.38;;;7.88;;
47167;SDS011;32931;47.778;17.806;2023-04-24T00:50:04;14.68;;;8.07;;
47167;SDS011;32931;47.778;17.806;2023-04-24T00:52:32;13.88;;;7.72;;
47167;SDS011;32931;47.778;17.806;2023-04-24T00:54:58;12.35;;;8.15;;
47167;SDS011;32931;47.778;17.806;2023-04-24T00:57:24;17.98;;;8.15;;
47167;SDS011;32931;47.778;17.806;2023-04-24T00:59:51;16.60;;;8.30;;
47167;SDS011;32931;47.778;17.806;2023-04-24T01:02:18;16.55;;;8.77;;
47167;SDS011;32931;47.778;17.806;2023-04-24T01:04:46;17.00;;;7.50;;
47167;SDS011;32931;47.778;17.806;2023-04-24T01:07:12;15.35;;;8.10;;
47167;SDS011;32931;47.778;17.806;2023-04-24T01:09:40;18.63;;;8.00;;
47167;SDS011;32931;47.778;17.806;2023-04-24T01:12:09;14.73;;;8.23;;
47167;SDS011;32931;47.778;17.806;2023-04-24T01:14:36;16.55;;;8.82;;
47167;SDS011;32931;47.778;17.806;2023-04-24T01:17:03;16.13;;;8.43;;
47167;SDS011;32931;47.778;17.806;2023-04-24T01:19:29;18.27;;;8.75;;
47167;SDS011;32931;47.778;17.806;2023-04-24T01:21:56;12.48;;;8.40;;
47167;SDS011;32931;47.778;17.806;2023-04-24T01:24:27;14.02;;;9.07;;
47167;SDS011;32931;47.778;17.806;2023-04-24T01:26:54;18.75;;;8.80;;
47167;SDS011;32931;47.778;17.806;2023-04-24T01:29:20;20.98;;;8.70;;
47167;SDS011;32931;47.778;17.806;2023-04-24T01:31:47;14.55;;;8.90;;
47167;SDS011;32931;47.778;17.806;2023-04-24T01:34:13;22.60;;;9.10;;
47167;SDS011;32931;47.778;17.806;2023-04-24T01:36:40;16.52;;;9.25;;
47167;SDS011;32931;47.778;17.806;2023-04-24T01:39:08;16.08;;;9.32;;
47167;SDS011;32931;47.778;17.806;2023-04-24T01:41:34;17.20;;;9.15;;
47167;SDS011;32931;47.778;17.806;2023-04-24T01:44:00;17.20;;;9.32;;
47167;SDS011;32931;47.778;17.806;2023-04-24T01:46:27;19.40;;;9.35;;
47167;SDS011;32931;47.778;17.806;2023-04-24T01:48:54;19.58;;;8.85;;
47167;SDS011;32931;47.778;17.806;2023-04-24T01:51:20;14.27;;;9.60;;
47167;SDS011;32931;47.778;17.806;2023-04-24T01:53:46;26.65;;;8.77;;
47167;SDS011;32931;47.778;17.806;2023-04-24T01:56:12;16.45;;;9.55;;
47167;SDS011;32931;47.778;17.806;2023-04-24T01:58:40;17.70;;;9.77;;
47167;SDS011;32931;47.778;17.806;2023-04-24T02:01:06;17.73;;;9.23;;
47167;SDS011;32931;47.778;17.806;2023-04-24T02:03:33;16.40;;;9.50;;
47167;SDS011;32931;47.778;17.806;2023-04-24T02:05:59;17.60;;;9.40;;
47167;SDS011;32931;47.778;17.806;2023-04-24T02:08:25;18.90;;;9.10;;
47167;SDS011;32931;47.778;17.806;2023-04-24T02:10:51;19.13;;;8.55;;
47167;SDS011;32931;47.778;17.806;2023-04-24T02:13:18;16.08;;;8.70;;
47167;SDS011;32931;47.778;17.806;2023-04-24T02:15:44;17.23;;;9.20;;
47167;SDS011;32931;47.778;17.806;2023-04-24T02:18:10;17.63;;;8.63;;
47167;SDS011;32931;47.778;17.806;2023-04-24T02:20:38;20.27;;;9.75;;
47167;SDS011;32931;47.778;17.806;2023-04-24T02:23:04;19.50;;;8.73;;
47167;SDS011;32931;47.778;17.806;2023-04-24T02:25:30;15.65;;;9.25;;
47167;SDS011;32931;47.778;17.806;2023-04-24T02:27:56;21.23;;;9.10;;
47167;SDS011;32931;47.778;17.806;2023-04-24T02:30:22;16.13;;;8.30;;
47167;SDS011;32931;47.778;17.806;2023-04-24T02:32:49;16.05;;;8.68;;
47167;SDS011;32931;47.778;17.806;2023-04-24T02:35:15;26.15;;;9.30;;
47167;SDS011;32931;47.778;17.806;2023-04-24T02:37:41;17.45;;;8.88;;
47167;SDS011;32931;47.778;17.806;2023-04-24T02:40:07;18.02;;;8.60;;
47167;SDS011;32931;47.778;17.806;2023-04-24T02:42:34;13.30;;;8.15;;
47167;SDS011;32931;47.778;17.806;2023-04-24T02:45:00;16.73;;;9.13;;
47167;SDS011;32931;47.778;17.806;2023-04-24T02:47:26;16.42;;;8.18;;
47167;SDS011;32931;47.778;17.806;2023-04-24T02:49:53;16.90;;;8.65;;
47167;SDS011;32931;47.778;17.806;2023-04-24T02:52:19;13.82;;;8.68;;
47167;SDS011;32931;47.778;17.806;2023-04-24T02:54:45;15.13;;;8.20;;
47167;SDS011;32931;47.778;17.806;2023-04-24T02:57:11;15.63;;;8.70;;
47167;SDS011;32931;47.778;17.806;2023-04-24T02:59:37;19.27;;;8.18;;
47167;SDS011;32931;47.778;17.806;2023-04-24T03:02:03;16.27;;;8.60;;
47167;SDS011;32931;47.778;17.806;2023-04-24T03:04:29;17.75;;;7.90;;
47167;SDS011;32931;47.778;17.806;2023-04-24T03:06:56;13.70;;;8.13;;
47167;SDS011;32931;47.778;17.806;2023-04-24T03:09:22;14.82;;;8.63;;
47167;SDS011;32931;47.778;17.806;2023-04-24T03:11:48;19.60;;;8.45;;
47167;SDS011;32931;47.778;17.806;2023-04-24T03:14:15;15.85;;;8.10;;
47167;SDS011;32931;47.778;17.806;2023-04-24T03:16:41;13.10;;;7.78;;
47167;SDS011;32931;47.778;17.806;2023-04-24T03:19:08;19.65;;;7.75;;
47167;SDS011;32931;47.778;17.806;2023-04-24T03:21:34;14.60;;;7.95;;
47167;SDS011;32931;47.778;17.806;2023-04-24T03:24:01;16.65;;;7.43;;
47167;SDS011;32931;47.778;17.806;2023-04-24T03:26:27;22.63;;;7.38;;
47167;SDS011;32931;47.778;17.806;2023-04-24T03:28:53;14.60;;;8.55;;
47167;SDS011;32931;47.778;17.806;2023-04-24T03:31:20;16.08;;;8.38;;
47167;SDS011;32931;47.778;17.806;2023-04-24T03:33:46;15.20;;;7.85;;
47167;SDS011;32931;47.778;17.806;2023-04-24T03:36:12;16.92;;;7.38;;
47167;SDS011;32931;47.778;17.806;2023-04-24T03:38:39;12.25;;;7.78;;
47167;SDS011;32931;47.778;17.806;2023-04-24T03:41:05;14.57;;;7.90;;
47167;SDS011;32931;47.778;17.806;2023-04-24T03:43:31;15.95;;;7.95;;
47167;SDS011;32931;47.778;17.806;2023-04-24T03:45:58;13.25;;;7.80;;
47167;SDS011;32931;47.778;17.806;2023-04-24T03:48:25;15.23;;;8.07;;
47167;SDS011;32931;47.778;17.806;2023-04-24T03:50:51;14.40;;;8.15;;
47167;SDS011;32931;47.778;17.806;2023-04-24T03:53:17;21.75;;;7.55;;
47167;SDS011;32931;47.778;17.806;2023-04-24T03:55:45;15.30;;;8.07;;
47167;SDS011;32931;47.778;17.806;2023-04-24T03:58:11;17.77;;;8.25;;
47167;SDS011;32931;47.778;17.806;2023-04-24T04:00:40;13.18;;;7.57;;
47167;SDS011;32931;47.778;17.806;2023-04-24T04:03:06;16.15;;;7.72;;
47167;SDS011;32931;47.778;17.806;2023-04-24T04:05:32;14.75;;;7.90;;
47167;SDS011;32931;47.778;17.806;2023-04-24T04:07:58;18.45;;;7.82;;
47167;SDS011;32931;47.778;17.806;2023-04-24T04:10:25;13.90;;;8.02;;
47167;SDS011;32931;47.778;17.806;2023-04-24T04:12:51;13.43;;;7.75;;
47167;SDS011;32931;47.778;17.806;2023-04-24T04:15:17;17.00;;;8.00;;
47167;SDS011;32931;47.778;17.806;2023-04-24T04:17:44;20.60;;;7.97;;
47167;SDS011;32931;47.778;17.806;2023-04-24T04:20:11;13.82;;;8.27;;
47167;SDS011;32931;47.778;17.806;2023-04-24T04:22:37;14.32;;;7.90;;
47167;SDS011;32931;47.778;17.806;2023-04-24T04:25:04;18.13;;;8.30;;
47167;SDS011;32931;47.778;17.806;2023-04-24T04:27:32;18.58;;;8.00;;
47167;SDS011;32931;47.778;17.806;2023-04-24T04:29:58;15.07;;;7.68;;
47167;SDS011;32931;47.778;17.806;2023-04-24T04:32:28;19.95;;;8.10;;
47167;SDS011;32931;47.778;17.806;2023-04-24T04:34:54;18.25;;;7.50;;
47167;SDS011;32931;47.778;17.806;2023-04-24T04:37:20;19.00;;;7.82;;
47167;SDS011;32931;47.778;17.806;2023-04-24T04:39:47;13.98;;;7.85;;
47167;SDS011;32931;47.778;17.806;2023-04-24T04:42:13;20.23;;;8.00;;
47167;SDS011;32931;47.778;17.806;2023-04-24T04:44:39;16.27;;;7.93;;
47167;SDS011;32931;47.778;17.806;2023-04-24T04:47:06;13.25;;;8.05;;
47167;SDS011;32931;47.778;17.806;2023-04-24T04:49:34;23.80;;;8.50;;
47167;SDS011;32931;47.778;17.806;2023-04-24T04:52:00;19.55;;;8.82;;
47167;SDS011;32931;47.778;17.806;2023-04-24T04:54:26;20.42;;;8.63;;
47167;SDS011;32931;47.778;17.806;2023-04-24T04:56:52;21.60;;;8.88;;
47167;SDS011;32931;47.778;17.806;2023-04-24T04:59:19;14.77;;;6.95;;
47167;SDS011;32931;47.778;17.806;2023-04-24T05:01:45;13.30;;;6.90;;
47167;SDS011;32931;47.778;17.806;2023-04-24T05:04:11;15.02;;;7.60;;
47167;SDS011;32931;47.778;17.806;2023-04-24T05:06:37;12.57;;;7.20;;
47167;SDS011;32931;47.778;17.806;2023-04-24T05:09:03;15.45;;;7.30;;
47167;SDS011;32931;47.778;17.806;2023-04-24T05:11:29;17.85;;;7.80;;
47167;SDS011;32931;47.778;17.806;2023-04-24T05:13:56;16.85;;;8.60;;
47167;SDS011;32931;47.778;17.806;2023-04-24T05:16:22;26.90;;;8.90;;
47167;SDS011;32931;47.778;17.806;2023-04-24T05:18:48;20.60;;;8.23;;
47167;SDS011;32931;47.778;17.806;2023-04-24T05:21:14;20.55;;;8.25;;
47167;SDS011;32931;47.778;17.806;2023-04-24T05:23:40;15.98;;;8.20;;
47167;SDS011;32931;47.778;17.806;2023-04-24T05:26:06;31.20;;;8.02;;
47167;SDS011;32931;47.778;17.806;2023-04-24T05:28:33;22.50;;;8.25;;
47167;SDS011;32931;47.778;17.806;2023-04-24T05:30:59;20.25;;;8.65;;
47167;SDS011;32931;47.778;17.806;2023-04-24T05:33:26;16.48;;;9.13;;
47167;SDS011;32931;47.778;17.806;2023-04-24T05:35:54;18.77;;;8.95;;
47167;SDS011;32931;47.778;17.806;2023-04-24T05:38:20;25.65;;;9.82;;
47167;SDS011;32931;47.778;17.806;2023-04-24T05:40:46;16.40;;;9.50;;
47167;SDS011;32931;47.778;17.806;2023-04-24T05:43:12;16.25;;;8.73;;
47167;SDS011;32931;47.778;17.806;2023-04-24T05:45:39;24.35;;;9.20;;
47167;SDS011;32931;47.778;17.806;2023-04-24T05:48:05;43.30;;;10.07;;
47167;SDS011;32931;47.778;17.806;2023-04-24T05:50:31;19.08;;;9.07;;
47167;SDS011;32931;47.778;17.806;2023-04-24T05:52:57;26.45;;;8.90;;
47167;SDS011;32931;47.778;17.806;2023-04-24T05:55:24;26.10;;;9.63;;
47167;SDS011;32931;47.778;17.806;2023-04-24T05:57:51;21.35;;;8.05;;
47167;SDS011;32931;47.778;17.806;2023-04-24T06:00:17;12.48;;;7.93;;
47167;SDS011;32931;47.778;17.806;2023-04-24T06:02:45;15.57;;;7.50;;
47167;SDS011;32931;47.778;17.806;2023-04-24T06:05:12;21.33;;;8.23;;
47167;SDS011;32931;47.778;17.806;2023-04-24T06:07:38;19.15;;;8.52;;
47167;SDS011;32931;47.778;17.806;2023-04-24T06:10:06;39.70;;;8.90;;
47167;SDS011;32931;47.778;17.806;2023-04-24T06:12:32;13.82;;;7.38;;
47167;SDS011;32931;47.778;17.806;2023-04-24T06:14:58;23.25;;;8.20;;
47167;SDS011;32931;47.778;17.806;2023-04-24T06:17:25;15.90;;;7.72;;
47167;SDS011;32931;47.778;17.806;2023-04-24T06:19:51;11.90;;;6.70;;
47167;SDS011;32931;47.778;17.806;2023-04-24T06:22:17;16.52;;;6.40;;
47167;SDS011;32931;47.778;17.806;2023-04-24T06:24:44;53.83;;;9.10;;
47167;SDS011;32931;47.778;17.806;2023-04-24T06:27:10;9.55;;;5.90;;
47167;SDS011;32931;47.778;17.806;2023-04-24T06:29:36;16.35;;;6.05;;
47167;SDS011;32931;47.778;17.806;2023-04-24T06:32:02;14.73;;;5.95;;
47167;SDS011;32931;47.778;17.806;2023-04-24T06:34:29;9.07;;;5.32;;
47167;SDS011;32931;47.778;17.806;2023-04-24T06:36:56;18.23;;;5.38;;
47167;SDS011;32931;47.778;17.806;2023-04-24T06:39:22;8.93;;;5.32;;
47167;SDS011;32931;47.778;17.806;2023-04-24T06:41:48;8.35;;;5.13;;
47167;SDS011;32931;47.778;17.806;2023-04-24T06:44:14;8.43;;;4.50;;
47167;SDS011;32931;47.778;17.806;2023-04-24T06:46:41;9.18;;;4.43;;
47167;SDS011;32931;47.778;17.806;2023-04-24T06:49:07;6.07;;;4.32;;
47167;SDS011;32931;47.778;17.806;2023-04-24T06:51:33;6.40;;;3.97;;
47167;SDS011;32931;47.778;17.806;2023-04-24T06:53:59;5.43;;;4.18;;
47167;SDS011;32931;47.778;17.806;2023-04-24T06:56:26;7.75;;;4.53;;
47167;SDS011;32931;47.778;17.806;2023-04-24T06:58:52;10.73;;;4.85;;
47167;SDS011;32931;47.778;17.806;2023-04-24T07:01:18;8.00;;;4.90;;
47167;SDS011;32931;47.778;17.806;2023-04-24T07:03:45;9.05;;;4.90;;
47167;SDS011;32931;47.778;17.806;2023-04-24T07:06:11;6.97;;;4.82;;
47167;SDS011;32931;47.778;17.806;2023-04-24T07:08:38;9.68;;;5.75;;
47167;SDS011;32931;47.778;17.806;2023-04-24T07:11:04;10.07;;;5.60;;
47167;SDS011;32931;47.778;17.806;2023-04-24T07:13:31;12.60;;;6.53;;
47167;SDS011;32931;47.778;17.806;2023-04-24T07:15:57;11.00;;;5.72;;
47167;SDS011;32931;47.778;17.806;2023-04-24T07:18:23;9.20;;;5.43;;
47167;SDS011;32931;47.778;17.806;2023-04-24T07:20:49;12.30;;;6.20;;
47167;SDS011;32931;47.778;17.806;2023-04-24T07:23:16;11.50;;;6.03;;
47167;SDS011;32931;47.778;17.806;2023-04-24T07:25:43;13.55;;;5.82;;
47167;SDS011;32931;47.778;17.806;2023-04-24T07:28:09;9.77;;;5.43;;
47167;SDS011;32931;47.778;17.806;2023-04-24T07:30:36;9.88;;;5.63;;
47167;SDS011;32931;47.778;17.806;2023-04-24T07:33:02;8.68;;;5.53;;
47167;SDS011;32931;47.778;17.806;2023-04-24T07:35:28;8.77;;;5.45;;
47167;SDS011;32931;47.778;17.806;2023-04-24T07:37:54;11.45;;;5.30;;
47167;SDS011;32931;47.778;17.806;2023-04-24T07:40:21;9.40;;;4.78;;
47167;SDS011;32931;47.778;17.806;2023-04-24T07:42:47;9.68;;;4.43;;
47167;SDS011;32931;47.778;17.806;2023-04-24T07:45:16;8.23;;;4.70;;
47167;SDS011;32931;47.778;17.806;2023-04-24T07:47:42;5.00;;;3.80;;
47167;SDS011;32931;47.778;17.806;2023-04-24T07:50:11;7.70;;;3.97;;
47167;SDS011;32931;47.778;17.806;2023-04-24T07:52:38;5.82;;;3.92;;
47167;SDS011;32931;47.778;17.806;2023-04-24T07:55:04;9.82;;;4.00;;
47167;SDS011;32931;47.778;17.806;2023-04-24T07:57:31;7.32;;;3.85;;
47167;SDS011;32931;47.778;17.806;2023-04-24T07:59:57;6.75;;;4.05;;
47167;SDS011;32931;47.778;17.806;2023-04-24T08:02:23;5.45;;;3.92;;
47167;SDS011;32931;47.778;17.806;2023-04-24T08:04:54;9.48;;;4.30;;
47167;SDS011;32931;47.778;17.806;2023-04-24T08:07:21;7.45;;;3.80;;
47167;SDS011;32931;47.778;17.806;2023-04-24T08:09:47;5.13;;;3.85;;
47167;SDS011;32931;47.778;17.806;2023-04-24T08:12:13;6.53;;;3.70;;
47167;SDS011;32931;47.778;17.806;2023-04-24T08:14:39;8.18;;;3.85;;
47167;SDS011;32931;47.778;17.806;2023-04-24T08:17:06;7.68;;;4.03;;
47167;SDS011;32931;47.778;17.806;2023-04-24T08:19:32;7.45;;;3.50;;
47167;SDS011;32931;47.778;17.806;2023-04-24T08:21:58;5.88;;;3.88;;
47167;SDS011;32931;47.778;17.806;2023-04-24T08:24:24;5.30;;;4.00;;
47167;SDS011;32931;47.778;17.806;2023-04-24T08:26:50;5.38;;;3.80;;
47167;SDS011;32931;47.778;17.806;2023-04-24T08:29:17;5.35;;;4.10;;
47167;SDS011;32931;47.778;17.806;2023-04-24T08:31:43;7.28;;;3.90;;
47167;SDS011;32931;47.778;17.806;2023-04-24T08:34:10;6.55;;;4.30;;
47167;SDS011;32931;47.778;17.806;2023-04-24T08:36:36;6.45;;;4.22;;
47167;SDS011;32931;47.778;17.806;2023-04-24T08:39:03;10.85;;;4.10;;
47167;SDS011;32931;47.778;17.806;2023-04-24T08:41:29;7.35;;;4.20;;
47167;SDS011;32931;47.778;17.806;2023-04-24T08:43:56;7.50;;;3.75;;
47167;SDS011;32931;47.778;17.806;2023-04-24T08:46:24;5.18;;;3.55;;
47167;SDS011;32931;47.778;17.806;2023-04-24T08:48:50;8.48;;;4.00;;
47167;SDS011;32931;47.778;17.806;2023-04-24T08:51:18;5.40;;;3.90;;
47167;SDS011;32931;47.778;17.806;2023-04-24T08:53:46;7.53;;;4.30;;
47167;SDS011;32931;47.778;17.806;2023-04-24T08:56:12;10.90;;;4.57;;
47167;SDS011;32931;47.778;17.806;2023-04-24T08:58:39;9.07;;;4.82;;
47167;SDS011;32931;47.778;17.806;2023-04-24T09:01:06;8.85;;;4.60;;
47167;SDS011;32931;47.778;17.806;2023-04-24T09:03:33;6.15;;;4.47;;
47167;SDS011;32931;47.778;17.806;2023-04-24T09:06:00;10.80;;;5.05;;
47167;SDS011;32931;47.778;17.806;2023-04-24T09:08:27;9.43;;;4.97;;
47167;SDS011;32931;47.778;17.806;2023-04-24T09:10:55;6.32;;;4.80;;
47167;SDS011;32931;47.778;17.806;2023-04-24T09:13:23;7.90;;;4.50;;
47167;SDS011;32931;47.778;17.806;2023-04-24T09:15:50;6.72;;;4.65;;
47167;SDS011;32931;47.778;17.806;2023-04-24T09:18:17;7.10;;;4.63;;
47167;SDS011;32931;47.778;17.806;2023-04-24T09:23:30;7.45;;;5.20;;
47167;SDS011;32931;47.778;17.806;2023-04-24T09:25:57;8.27;;;5.38;;
47167;SDS011;32931;47.778;17.806;2023-04-24T09:28:26;10.82;;;5.22;;
47167;SDS011;32931;47.778;17.806;2023-04-24T09:31:02;7.03;;;4.70;;
47167;SDS011;32931;47.778;17.806;2023-04-24T09:33:37;7.47;;;4.60;;
47167;SDS011;32931;47.778;17.806;2023-04-24T09:36:03;6.05;;;4.00;;
47167;SDS011;32931;47.778;17.806;2023-04-24T09:38:33;6.57;;;4.38;;
47167;SDS011;32931;47.778;17.806;2023-04-24T09:41:07;13.18;;;4.50;;
47167;SDS011;32931;47.778;17.806;2023-04-24T09:43:38;8.10;;;4.35;;
47167;SDS011;32931;47.778;17.806;2023-04-24T09:46:06;7.88;;;4.75;;
47167;SDS011;32931;47.778;17.806;2023-04-24T09:48:35;6.18;;;4.45;;
47167;SDS011;32931;47.778;17.806;2023-04-24T09:51:03;12.75;;;4.70;;
47167;SDS011;32931;47.778;17.806;2023-04-24T09:53:32;7.78;;;4.28;;
47167;SDS011;32931;47.778;17.806;2023-04-24T09:56:02;8.13;;;4.53;;
47167;SDS011;32931;47.778;17.806;2023-04-24T09:58:34;10.00;;;5.00;;
47167;SDS011;32931;47.778;17.806;2023-04-24T10:01:01;9.15;;;4.65;;
47167;SDS011;32931;47.778;17.806;2023-04-24T10:03:31;8.48;;;5.15;;
47167;SDS011;32931;47.778;17.806;2023-04-24T10:05:59;5.93;;;4.43;;
47167;SDS011;32931;47.778;17.806;2023-04-24T10:08:26;7.40;;;4.10;;
47167;SDS011;32931;47.778;17.806;2023-04-24T10:10:59;9.35;;;4.32;;
47167;SDS011;32931;47.778;17.806;2023-04-24T10:13:26;8.93;;;4.40;;
47167;SDS011;32931;47.778;17.806;2023-04-24T10:15:54;8.07;;;4.50;;
47167;SDS011;32931;47.778;17.806;2023-04-24T10:18:21;8.38;;;4.03;;
47167;SDS011;32931;47.778;17.806;2023-04-24T10:20:49;8.55;;;4.07;;
47167;SDS011;32931;47.778;17.806;2023-04-24T10:23:16;9.57;;;3.78;;
47167;SDS011;32931;47.778;17.806;2023-04-24T10:25:44;5.15;;;3.63;;
47167;SDS011;32931;47.778;17.806;2023-04-24T10:28:11;5.72;;;3.70;;
47167;SDS011;32931;47.778;17.806;2023-04-24T10:30:37;8.43;;;3.83;;
47167;SDS011;32931;47.778;17.806;2023-04-24T10:33:08;5.50;;;3.85;;
47167;SDS011;32931;47.778;17.806;2023-04-24T10:35:41;4.78;;;3.40;;
47167;SDS011;32931;47.778;17.806;2023-04-24T10:38:13;6.97;;;3.45;;
47167;SDS011;32931;47.778;17.806;2023-04-24T10:40:42;7.50;;;3.70;;
47167;SDS011;32931;47.778;17.806;2023-04-24T10:43:09;27.00;;;4.53;;
47167;SDS011;32931;47.778;17.806;2023-04-24T10:45:37;4.55;;;3.45;;
47167;SDS011;32931;47.778;17.806;2023-04-24T10:48:05;3.90;;;2.75;;
47167;SDS011;32931;47.778;17.806;2023-04-24T10:50:46;19.17;;;4.03;;
47167;SDS011;32931;47.778;17.806;2023-04-24T10:53:23;6.18;;;3.20;;
47167;SDS011;32931;47.778;17.806;2023-04-24T10:56:05;4.93;;;2.97;;
47167;SDS011;32931;47.778;17.806;2023-04-24T10:58:50;4.85;;;2.97;;
47167;SDS011;32931;47.778;17.806;2023-04-24T11:01:25;5.43;;;3.08;;
47167;SDS011;32931;47.778;17.806;2023-04-24T11:03:56;9.43;;;3.20;;
47167;SDS011;32931;47.778;17.806;2023-04-24T11:11:33;6.60;;;2.40;;
47167;SDS011;32931;47.778;17.806;2023-04-24T11:14:01;5.32;;;2.17;;
47167;SDS011;32931;47.778;17.806;2023-04-24T11:16:53;7.45;;;2.55;;
47167;SDS011;32931;47.778;17.806;2023-04-24T11:19:23;6.20;;;2.17;;
47167;SDS011;32931;47.778;17.806;2023-04-24T11:21:55;4.15;;;2.20;;
47167;SDS011;32931;47.778;17.806;2023-04-24T11:27:14;4.78;;;2.30;;
47167;SDS011;32931;47.778;17.806;2023-04-24T11:37:44;4.57;;;1.67;;
47167;SDS011;32931;47.778;17.806;2023-04-24T11:40:13;3.22;;;1.50;;
47167;SDS011;32931;47.778;17.806;2023-04-24T11:42:44;6.35;;;1.60;;
47167;SDS011;32931;47.778;17.806;2023-04-24T11:47:38;3.03;;;1.63;;
47167;SDS011;32931;47.778;17.806;2023-04-24T11:50:06;3.28;;;1.55;;
47167;SDS011;32931;47.778;17.806;2023-04-24T11:52:38;3.83;;;1.23;;
47167;SDS011;32931;47.778;17.806;2023-04-24T11:55:22;1.52;;;1.08;;
47167;SDS011;32931;47.778;17.806;2023-04-24T11:57:49;3.30;;;1.40;;
47167;SDS011;32931;47.778;17.806;2023-04-24T12:00:20;5.40;;;1.35;;
47167;SDS011;32931;47.778;17.806;2023-04-24T12:05:35;6.65;;;1.42;;
47167;SDS011;32931;47.778;17.806;2023-04-24T12:08:02;5.82;;;1.10;;
47167;SDS011;32931;47.778;17.806;2023-04-24T12:10:28;11.93;;;1.23;;
47167;SDS011;32931;47.778;17.806;2023-04-24T12:12:56;7.70;;;1.38;;
47167;SDS011;32931;47.778;17.806;2023-04-24T12:15:23;34.55;;;1.73;;
47167;SDS011;32931;47.778;17.806;2023-04-24T12:17:50;6.70;;;2.10;;
47167;SDS011;32931;47.778;17.806;2023-04-24T12:20:23;2.67;;;0.98;;
47167;SDS011;32931;47.778;17.806;2023-04-24T12:22:53;2.65;;;0.73;;
47167;SDS011;32931;47.778;17.806;2023-04-24T12:25:23;1.90;;;1.00;;
47167;SDS011;32931;47.778;17.806;2023-04-24T12:27:54;25.10;;;1.80;;
47167;SDS011;32931;47.778;17.806;2023-04-24T12:30:29;22.63;;;1.58;;
47167;SDS011;32931;47.778;17.806;2023-04-24T12:33:01;24.00;;;1.50;;
47167;SDS011;32931;47.778;17.806;2023-04-24T12:35:29;12.90;;;1.10;;
47167;SDS011;32931;47.778;17.806;2023-04-24T12:38:13;22.63;;;2.92;;
47167;SDS011;32931;47.778;17.806;2023-04-24T12:40:41;21.88;;;2.53;;
47167;SDS011;32931;47.778;17.806;2023-04-24T12:43:15;10.32;;;1.08;;
47167;SDS011;32931;47.778;17.806;2023-04-24T12:45:43;16.27;;;1.63;;
47167;SDS011;32931;47.778;17.806;2023-04-24T12:48:10;4.03;;;0.93;;
47167;SDS011;32931;47.778;17.806;2023-04-24T12:50:37;14.18;;;1.13;;
47167;SDS011;32931;47.778;17.806;2023-04-24T12:53:04;4.47;;;0.80;;
47167;SDS011;32931;47.778;17.806;2023-04-24T12:55:31;2.05;;;1.10;;
47167;SDS011;32931;47.778;17.806;2023-04-24T12:57:58;3.55;;;0.98;;
47167;SDS011;32931;47.778;17.806;2023-04-24T13:00:24;5.72;;;1.10;;
47167;SDS011;32931;47.778;17.806;2023-04-24T13:02:50;6.45;;;1.00;;
47167;SDS011;32931;47.778;17.806;2023-04-24T13:05:17;16.27;;;1.73;;
47167;SDS011;32931;47.778;17.806;2023-04-24T13:07:43;4.15;;;1.00;;
47167;SDS011;32931;47.778;17.806;2023-04-24T13:10:09;2.72;;;0.93;;
47167;SDS011;32931;47.778;17.806;2023-04-24T13:12:35;1.65;;;1.08;;
47167;SDS011;32931;47.778;17.806;2023-04-24T13:15:02;2.03;;;1.00;;
47167;SDS011;32931;47.778;17.806;2023-04-24T13:17:29;11.70;;;1.25;;
47167;SDS011;32931;47.778;17.806;2023-04-24T13:19:55;1.27;;;1.00;;
47167;SDS011;32931;47.778;17.806;2023-04-24T13:22:21;30.55;;;4.20;;
47167;SDS011;32931;47.778;17.806;2023-04-24T13:24:47;2.38;;;1.10;;
47167;SDS011;32931;47.778;17.806;2023-04-24T13:27:17;2.10;;;1.10;;
47167;SDS011;32931;47.778;17.806;2023-04-24T13:29:43;1.75;;;1.00;;
47167;SDS011;32931;47.778;17.806;2023-04-24T13:32:10;6.97;;;1.30;;
47167;SDS011;32931;47.778;17.806;2023-04-24T13:34:36;3.40;;;1.20;;
47167;SDS011;32931;47.778;17.806;2023-04-24T13:37:02;4.10;;;1.08;;
47167;SDS011;32931;47.778;17.806;2023-04-24T13:39:29;5.82;;;1.02;;
47167;SDS011;32931;47.778;17.806;2023-04-24T13:41:55;2.22;;;1.02;;
47167;SDS011;32931;47.778;17.806;2023-04-24T13:44:22;1.70;;;1.13;;
47167;SDS011;32931;47.778;17.806;2023-04-24T13:46:49;6.35;;;1.25;;
47167;SDS011;32931;47.778;17.806;2023-04-24T13:49:19;2.13;;;1.40;;
47167;SDS011;32931;47.778;17.806;2023-04-24T13:51:46;3.75;;;1.10;;
47167;SDS011;32931;47.778;17.806;2023-04-24T13:54:13;2.63;;;1.10;;
47167;SDS011;32931;47.778;17.806;2023-04-24T13:56:39;2.40;;;1.23;;
47167;SDS011;32931;47.778;17.806;2023-04-24T13:59:06;5.00;;;1.10;;
47167;SDS011;32931;47.778;17.806;2023-04-24T14:01:32;2.75;;;1.20;;
47167;SDS011;32931;47.778;17.806;2023-04-24T14:03:58;1.83;;;1.23;;
47167;SDS011;32931;47.778;17.806;2023-04-24T14:06:25;5.88;;;0.98;;
47167;SDS011;32931;47.778;17.806;2023-04-24T14:08:51;3.50;;;1.50;;
47167;SDS011;32931;47.778;17.806;2023-04-24T14:11:18;1.52;;;1.33;;
47167;SDS011;32931;47.778;17.806;2023-04-24T14:13:45;3.05;;;1.30;;
47167;SDS011;32931;47.778;17.806;2023-04-24T14:16:11;3.20;;;1.20;;
47167;SDS011;32931;47.778;17.806;2023-04-24T14:18:38;1.92;;;1.20;;
47167;SDS011;32931;47.778;17.806;2023-04-24T14:21:04;2.20;;;1.10;;
47167;SDS011;32931;47.778;17.806;2023-04-24T14:23:30;2.30;;;1.20;;
47167;SDS011;32931;47.778;17.806;2023-04-24T14:25:57;3.90;;;1.10;;
47167;SDS011;32931;47.778;17.806;2023-04-24T14:28:24;2.08;;;1.23;;
47167;SDS011;32931;47.778;17.806;2023-04-24T14:30:51;3.55;;;1.65;;
47167;SDS011;32931;47.778;17.806;2023-04-24T14:33:18;2.20;;;1.00;;
47167;SDS011;32931;47.778;17.806;2023-04-24T14:35:44;2.20;;;1.10;;
47167;SDS011;32931;47.778;17.806;2023-04-24T14:38:11;1.95;;;0.98;;
47167;SDS011;32931;47.778;17.806;2023-04-24T14:40:37;2.38;;;1.00;;
47167;SDS011;32931;47.778;17.806;2023-04-24T14:43:04;1.73;;;0.88;;
47167;SDS011;32931;47.778;17.806;2023-04-24T14:45:30;1.73;;;1.20;;
47167;SDS011;32931;47.778;17.806;2023-04-24T14:47:56;3.17;;;1.00;;
47167;SDS011;32931;47.778;17.806;2023-04-24T14:50:23;1.73;;;1.17;;
47167;SDS011;32931;47.778;17.806;2023-04-24T14:52:53;4.75;;;1.10;;